Time;durP1;ratioP1;P1;durP2;ratioP2;P2;SDS_P1;SDS_P2;PMS_P1;PMS_P2;Temp;Humidity;BMP_temperature;BMP_pressure;BME280_temperature;BME280_humidity;BME280_pressure;Samples;Min_cycle;Max_cycle;Signal;HPM_P1;HPM_P2
2023/03/22 00:00:18;;;;;;;38.00;6.93;;;17.20;59.50;;;;;;5078292;28;20209;-95
2023/03/22 00:05:29;;;;;;;32.70;6.10;;;17.20;59.50;;;;;;5068877;28;20318;-96
2023/03/22 00:08:21;;;;;;;44.10;6.83;;;17.20;59.50;;;;;;5079832;28;20280;-95
2023/03/22 00:10:48;;;;;;;47.43;7.77;;;17.30;59.70;;;;;;5089884;28;20292;-96
2023/03/22 00:13:15;;;;;;;44.03;7.20;;;17.20;59.60;;;;;;5071724;28;20294;-94
2023/03/22 00:15:44;;;;;;;32.17;6.27;;;17.20;59.60;;;;;;5076557;28;20195;-96
2023/03/22 00:18:13;;;;;;;36.23;6.17;;;17.20;59.60;;;;;;5072366;28;20201;-95
2023/03/22 00:20:47;;;;;;;36.57;6.97;;;17.20;59.70;;;;;;5077525;28;20214;-96
2023/03/22 00:23:15;;;;;;;53.23;8.03;;;17.20;59.70;;;;;;5064160;28;20253;-95
2023/03/22 00:25:44;;;;;;;40.57;6.87;;;17.20;59.60;;;;;;5062594;28;20210;-95
2023/03/22 00:31:00;;;;;;;37.27;6.53;;;17.10;59.50;;;;;;5048643;28;20206;-95
2023/03/22 00:33:27;;;;;;;61.07;8.60;;;17.10;59.60;;;;;;5062341;28;20206;-95
2023/03/22 00:36:40;;;;;;;53.60;8.23;;;17.20;59.70;;;;;;5053463;28;20210;-95
2023/03/22 00:39:08;;;;;;;32.90;6.40;;;17.10;59.60;;;;;;5045003;28;20206;-95
2023/03/22 00:44:18;;;;;;;37.13;6.57;;;17.10;59.50;;;;;;5040749;28;20250;-95
2023/03/22 00:46:44;;;;;;;35.83;7.33;;;17.10;59.60;;;;;;5055433;28;20299;-95
2023/03/22 00:49:11;;;;;;;35.80;6.83;;;17.10;59.60;;;;;;5057779;28;20325;-95
2023/03/22 00:51:44;;;;;;;31.20;6.37;;;17.10;59.60;;;;;;5072045;28;20202;-95
2023/03/22 00:54:16;;;;;;;52.83;8.17;;;17.10;59.60;;;;;;5052037;28;20234;-94
2023/03/22 00:56:44;;;;;;;47.27;8.50;;;17.00;59.50;;;;;;5052211;28;20201;-95
2023/03/22 00:59:11;;;;;;;44.00;7.57;;;17.10;59.70;;;;;;5056080;28;20210;-95
2023/03/22 01:01:38;;;;;;;37.93;7.20;;;17.00;59.60;;;;;;5073152;28;20300;-95
2023/03/22 01:04:06;;;;;;;56.13;8.53;;;17.10;59.70;;;;;;5068438;28;20270;-95
2023/03/22 01:09:56;;;;;;;39.80;7.97;;;17.10;59.80;;;;;;5064823;28;20236;-95
2023/03/22 01:12:23;;;;;;;38.23;7.63;;;17.00;59.60;;;;;;5046978;28;20532;-96
2023/03/22 01:14:50;;;;;;;38.40;7.33;;;17.00;59.70;;;;;;5042587;28;20208;-95
2023/03/22 01:17:17;;;;;;;31.27;6.50;;;17.00;59.70;;;;;;5061218;28;20244;-96
2023/03/22 01:25:31;;;;;;;40.80;7.70;;;17.00;59.80;;;;;;5057222;28;20228;-96
2023/03/22 01:28:01;;;;;;;32.97;7.50;;;17.00;59.70;;;;;;5070180;28;20238;-94
2023/03/22 01:30:28;;;;;;;33.03;6.83;;;17.00;59.70;;;;;;5056470;28;20284;-95
2023/03/22 01:32:55;;;;;;;135.03;14.77;;;17.00;60.40;;;;;;5079371;22;20275;-95
2023/03/22 01:35:29;;;;;;;49.10;8.00;;;17.00;59.70;;;;;;5090447;28;20240;-95
2023/03/22 01:37:56;;;;;;;29.90;6.83;;;17.00;59.70;;;;;;5090879;28;20217;-95
2023/03/22 01:40:24;;;;;;;45.70;8.00;;;17.00;59.70;;;;;;5088760;28;20335;-95
2023/03/22 01:43:11;;;;;;;45.33;7.67;;;17.00;59.70;;;;;;5090267;28;20565;-95
2023/03/22 01:45:41;;;;;;;44.33;8.13;;;17.00;59.70;;;;;;5091586;28;20241;-95
2023/03/22 01:51:52;;;;;;;44.00;7.93;;;16.90;59.70;;;;;;4992828;28;20209;-95
2023/03/22 01:54:28;;;;;;;39.23;7.43;;;16.80;59.60;;;;;;4949498;28;20241;-96
2023/03/22 01:56:56;;;;;;;40.80;7.57;;;17.00;59.70;;;;;;5069111;28;20251;-95
2023/03/22 01:59:25;;;;;;;33.30;7.07;;;16.90;59.60;;;;;;5078851;28;20231;-95
2023/03/22 02:01:58;;;;;;;28.90;6.50;;;17.00;59.70;;;;;;5071019;28;20200;-95
2023/03/22 02:04:33;;;;;;;30.27;6.33;;;16.90;59.70;;;;;;5089953;28;20227;-95
2023/03/22 02:07:08;;;;;;;50.37;8.07;;;16.90;59.70;;;;;;5072612;28;20317;-95
2023/03/22 02:09:38;;;;;;;49.97;8.00;;;17.00;59.70;;;;;;5090972;28;20209;-95
2023/03/22 02:12:16;;;;;;;41.70;8.10;;;16.90;59.60;;;;;;5090766;28;20199;-96
2023/03/22 02:14:58;;;;;;;37.57;8.23;;;16.90;59.70;;;;;;5089767;28;20203;-95
2023/03/22 02:17:37;;;;;;;36.60;7.17;;;16.90;59.70;;;;;;5075399;28;20209;-94
2023/03/22 02:20:37;;;;;;;34.60;7.20;;;16.90;59.70;;;;;;5089647;28;20240;-95
2023/03/22 02:23:48;;;;;;;39.77;7.67;;;16.90;59.70;;;;;;5090677;28;20234;-95
2023/03/22 02:27:08;;;;;;;56.47;8.73;;;16.90;59.70;;;;;;5086286;28;20660;-95
2023/03/22 02:29:44;;;;;;;37.10;7.77;;;16.90;59.70;;;;;;5027582;28;20378;-95
2023/03/22 02:32:34;;;;;;;36.93;7.33;;;16.90;59.70;;;;;;5026941;28;20211;-94
2023/03/22 02:35:39;;;;;;;41.80;7.97;;;16.90;59.70;;;;;;5068339;28;20245;-93
2023/03/22 02:38:59;;;;;;;32.80;7.30;;;16.90;59.70;;;;;;5087641;28;20194;-95
2023/03/22 02:41:42;;;;;;;50.43;8.20;;;16.80;59.60;;;;;;5046314;28;20217;-95
2023/03/22 02:47:24;;;;;;;29.87;7.47;;;16.90;59.70;;;;;;5074651;28;20210;-95
2023/03/22 02:49:58;;;;;;;48.53;8.33;;;16.80;59.60;;;;;;5070910;28;20210;-94
2023/03/22 02:52:31;;;;;;;30.73;7.23;;;16.80;59.60;;;;;;5088112;28;20300;-94
2023/03/22 02:55:10;;;;;;;22.20;6.70;;;16.80;59.60;;;;;;5089353;28;21150;-94
2023/03/22 02:57:41;;;;;;;28.47;6.27;;;16.80;59.60;;;;;;5090542;28;20756;-94
2023/03/22 03:00:11;;;;;;;22.57;6.30;;;16.80;59.70;;;;;;5089277;28;20198;-94
2023/03/22 03:02:41;;;;;;;31.00;7.00;;;16.90;59.70;;;;;;5084173;28;20209;-95
2023/03/22 03:05:10;;;;;;;45.23;8.03;;;16.80;59.60;;;;;;5090313;28;20632;-95
2023/03/22 03:07:38;;;;;;;34.77;7.23;;;16.90;59.70;;;;;;5090026;28;20208;-95
2023/03/22 03:10:09;;;;;;;39.93;7.40;;;16.80;59.60;;;;;;5090998;28;20637;-95
2023/03/22 03:15:24;;;;;;;38.20;6.97;;;16.80;59.50;;;;;;5155370;22;20727;-95
2023/03/22 03:18:12;;;;;;;36.97;6.90;;;16.80;59.70;;;;;;5089729;28;20237;-95
2023/03/22 03:20:51;;;;;;;36.67;7.27;;;16.80;59.60;;;;;;5089612;28;20226;-95
2023/03/22 03:23:28;;;;;;;24.60;6.03;;;16.80;59.60;;;;;;5089640;28;20233;-93
2023/03/22 03:26:03;;;;;;;52.17;7.57;;;16.80;59.60;;;;;;5080479;28;20291;-94
2023/03/22 03:29:02;;;;;;;38.73;7.57;;;16.80;59.60;;;;;;5089565;28;20226;-95
2023/03/22 03:31:37;;;;;;;36.50;6.80;;;16.80;59.60;;;;;;5085456;28;20210;-95
2023/03/22 03:34:13;;;;;;;38.73;7.07;;;16.80;59.60;;;;;;5087668;28;20205;-96
2023/03/22 03:39:52;;;;;;;68.63;9.40;;;16.80;59.60;;;;;;5084657;28;20200;-95
2023/03/22 03:42:25;;;;;;;35.30;6.40;;;16.80;59.60;;;;;;5086262;28;20202;-96
2023/03/22 03:44:52;;;;;;;63.27;8.97;;;16.80;59.60;;;;;;5088218;28;20200;-96
2023/03/22 03:47:20;;;;;;;61.43;8.83;;;16.80;59.60;;;;;;5088491;28;20244;-96
2023/03/22 03:49:47;;;;;;;36.03;6.60;;;16.80;59.60;;;;;;5073521;28;20313;-96
2023/03/22 03:52:14;;;;;;;37.50;7.03;;;16.80;59.60;;;;;;5088141;28;20303;-95
2023/03/22 03:54:44;;;;;;;29.13;6.10;;;16.80;59.60;;;;;;5087789;28;20204;-96
2023/03/22 03:57:11;;;;;;;37.47;6.67;;;16.80;59.60;;;;;;5082376;28;20220;-95
2023/03/22 03:59:39;;;;;;;38.90;6.40;;;16.70;59.60;;;;;;5087568;28;20248;-95
2023/03/22 04:02:06;;;;;;;34.97;6.80;;;16.80;59.60;;;;;;5089356;28;20673;-95
2023/03/22 04:04:34;;;;;;;34.63;6.63;;;16.70;59.60;;;;;;5089354;28;20651;-94
2023/03/22 04:07:03;;;;;;;36.63;7.03;;;16.70;59.50;;;;;;5078544;28;20589;-95
2023/03/22 04:15:13;;;;;;;32.60;6.27;;;16.70;59.50;;;;;;5065557;28;20212;-96
2023/03/22 04:17:41;;;;;;;37.90;6.60;;;16.70;59.50;;;;;;5069401;28;20197;-96
2023/03/22 04:20:48;;;;;;;42.00;6.67;;;16.80;59.60;;;;;;5087216;28;20217;-95
2023/03/22 04:23:16;;;;;;;42.67;6.60;;;16.80;59.60;;;;;;5088211;28;20283;-96
2023/03/22 04:28:32;;;;;;;35.90;6.83;;;16.70;59.50;;;;;;5080379;28;20340;-94
2023/03/22 04:31:02;;;;;;;34.50;6.23;;;16.70;59.50;;;;;;5088562;28;20303;-96
2023/03/22 04:33:31;;;;;;;32.47;6.03;;;16.70;59.50;;;;;;5087737;28;20940;-95
2023/03/22 04:35:58;;;;;;;30.30;5.93;;;16.70;59.50;;;;;;5083928;28;20207;-95
2023/03/22 04:38:25;;;;;;;37.03;7.23;;;16.70;59.50;;;;;;5088790;28;20236;-95
2023/03/22 04:40:52;;;;;;;40.10;6.53;;;16.70;59.50;;;;;;5086876;28;20211;-94
2023/03/22 04:43:28;;;;;;;28.33;5.90;;;16.80;59.70;;;;;;5089390;28;20292;-95
2023/03/22 04:45:57;;;;;;;46.93;7.43;;;16.70;59.60;;;;;;5088425;28;20551;-96
2023/03/22 04:48:26;;;;;;;34.97;6.43;;;16.60;59.50;;;;;;5088914;28;20223;-96
2023/03/22 04:50:54;;;;;;;39.27;7.00;;;16.70;59.60;;;;;;5088871;28;20207;-96
2023/03/22 04:53:26;;;;;;;30.93;6.37;;;16.70;60.20;;;;;;5088623;28;20207;-95
2023/03/22 04:56:16;;;;;;;37.20;6.53;;;16.70;59.60;;;;;;5088915;28;20213;-95
2023/03/22 04:59:02;;;;;;;37.57;6.30;;;16.60;59.60;;;;;;5088794;28;20222;-95
2023/03/22 05:01:29;;;;;;;38.97;6.50;;;16.60;59.60;;;;;;5088866;28;20208;-94
2023/03/22 05:03:57;;;;;;;33.87;6.20;;;16.70;59.60;;;;;;5089430;28;20200;-95
2023/03/22 05:06:25;;;;;;;44.63;7.40;;;16.70;59.60;;;;;;5088325;28;20199;-96
2023/03/22 05:08:55;;;;;;;44.97;6.97;;;16.70;59.70;;;;;;5088818;28;20219;-96
2023/03/22 05:11:23;;;;;;;37.80;7.07;;;16.70;59.70;;;;;;5089141;28;20309;-96
2023/03/22 05:13:50;;;;;;;42.43;7.03;;;16.60;59.60;;;;;;5085939;28;20213;-95
2023/03/22 05:16:16;;;;;;;37.43;6.50;;;16.70;59.70;;;;;;5086728;28;20625;-96
2023/03/22 05:18:44;;;;;;;33.27;6.60;;;16.70;59.70;;;;;;5088691;28;20210;-95
2023/03/22 05:21:14;;;;;;;32.83;6.17;;;16.60;59.60;;;;;;5088481;28;20293;-95
2023/03/22 05:23:42;;;;;;;48.57;7.77;;;16.70;59.70;;;;;;5088259;28;20199;-96
2023/03/22 05:26:09;;;;;;;30.53;5.57;;;16.70;59.70;;;;;;5091988;28;20262;-96
2023/03/22 05:28:38;;;;;;;49.07;7.20;;;16.70;59.70;;;;;;5086251;28;20299;-96
2023/03/22 05:31:07;;;;;;;30.53;5.93;;;16.70;59.70;;;;;;5092057;28;20553;-96
2023/03/22 05:33:34;;;;;;;24.03;5.13;;;16.70;59.70;;;;;;5089835;28;20202;-95
2023/03/22 05:36:01;;;;;;;50.07;7.37;;;16.70;59.70;;;;;;5090659;28;20206;-96
2023/03/22 05:38:30;;;;;;;30.20;5.50;;;16.70;59.70;;;;;;5089989;28;20202;-95
2023/03/22 05:40:57;;;;;;;42.40;6.53;;;16.70;59.60;;;;;;5088474;28;20219;-96
2023/03/22 05:43:24;;;;;;;37.07;6.70;;;16.70;59.70;;;;;;5089717;28;20967;-95
2023/03/22 05:45:51;;;;;;;48.40;7.40;;;16.70;59.70;;;;;;5089569;28;20313;-96
2023/03/22 05:48:18;;;;;;;31.17;5.87;;;16.60;59.60;;;;;;5089101;28;20965;-95
2023/03/22 05:50:45;;;;;;;35.67;5.67;;;16.70;59.70;;;;;;5090472;28;20200;-95
2023/03/22 05:53:12;;;;;;;32.50;6.20;;;16.70;59.70;;;;;;5074787;28;20292;-96
2023/03/22 05:55:41;;;;;;;35.60;5.93;;;16.60;59.60;;;;;;5091987;28;20215;-94
2023/03/22 05:58:09;;;;;;;31.97;6.27;;;16.70;59.60;;;;;;5091165;28;20215;-94
2023/03/22 06:00:37;;;;;;;34.13;6.67;;;16.60;59.60;;;;;;5091779;28;20215;-94
2023/03/22 06:03:04;;;;;;;42.60;6.47;;;16.70;59.70;;;;;;5089320;28;20213;-94
2023/03/22 06:05:35;;;;;;;32.23;5.53;;;16.60;59.60;;;;;;5090961;28;20197;-96
2023/03/22 06:08:02;;;;;;;34.87;6.27;;;16.60;59.60;;;;;;5088719;28;20207;-95
2023/03/22 06:10:29;;;;;;;42.93;6.80;;;16.70;59.70;;;;;;5079782;28;20230;-94
2023/03/22 06:12:57;;;;;;;44.10;6.63;;;16.60;59.60;;;;;;5079198;28;20196;-96
2023/03/22 06:15:25;;;;;;;40.47;6.77;;;16.60;59.60;;;;;;5091111;28;20243;-96
2023/03/22 06:17:51;;;;;;;31.07;5.63;;;16.60;59.60;;;;;;5090188;28;20203;-96
2023/03/22 06:20:19;;;;;;;36.47;6.50;;;16.60;59.60;;;;;;5090384;28;20292;-95
2023/03/22 06:22:46;;;;;;;33.57;5.70;;;16.60;59.60;;;;;;5090547;28;20221;-94
2023/03/22 06:25:13;;;;;;;30.37;5.87;;;16.60;59.60;;;;;;5086785;28;20225;-94
2023/03/22 06:27:40;;;;;;;59.40;7.90;;;16.60;59.60;;;;;;5088452;28;20207;-95
2023/03/22 06:30:11;;;;;;;34.77;5.90;;;16.70;59.70;;;;;;5091129;28;20233;-95
2023/03/22 06:32:38;;;;;;;41.10;6.10;;;16.60;59.60;;;;;;5091152;28;20207;-95
2023/03/22 06:35:06;;;;;;;40.60;6.57;;;16.60;59.60;;;;;;5090427;28;20240;-96
2023/03/22 06:37:33;;;;;;;41.27;6.47;;;16.60;59.60;;;;;;5090176;28;20206;-95
2023/03/22 06:40:00;;;;;;;43.53;6.53;;;16.60;59.60;;;;;;5090728;28;20206;-92
2023/03/22 06:42:29;;;;;;;32.83;5.80;;;16.60;59.60;;;;;;5087171;28;20228;-94
2023/03/22 06:44:56;;;;;;;38.37;6.90;;;16.60;59.60;;;;;;5097912;28;20194;-91
2023/03/22 06:47:25;;;;;;;31.07;5.60;;;16.60;59.60;;;;;;5090333;28;20634;-95
2023/03/22 06:49:55;;;;;;;40.03;6.67;;;16.60;59.60;;;;;;5088329;28;20323;-96
2023/03/22 06:52:23;;;;;;;35.90;6.27;;;16.60;59.60;;;;;;5074971;28;20270;-95
2023/03/22 06:54:50;;;;;;;30.90;5.67;;;16.60;59.60;;;;;;5090985;28;20244;-95
2023/03/22 06:57:20;;;;;;;32.70;6.07;;;16.60;59.60;;;;;;5090213;28;20233;-96
2023/03/22 06:59:47;;;;;;;28.93;5.77;;;16.60;59.60;;;;;;5090906;28;20205;-95
2023/03/22 07:02:14;;;;;;;34.17;6.20;;;16.60;59.60;;;;;;5086401;28;20203;-93
2023/03/22 07:04:42;;;;;;;46.30;7.03;;;16.60;59.70;;;;;;5090373;28;20235;-94
2023/03/22 07:07:09;;;;;;;32.60;5.87;;;16.60;59.60;;;;;;5089675;28;20203;-94
2023/03/22 07:09:38;;;;;;;35.80;6.47;;;16.60;60.30;;;;;;5089149;28;20203;-94
2023/03/22 07:12:17;;;;;;;39.07;6.20;;;16.60;59.60;;;;;;5087605;28;20209;-93
2023/03/22 07:14:44;;;;;;;53.97;7.17;;;16.60;59.60;;;;;;5075883;28;20661;-94
2023/03/22 07:17:14;;;;;;;28.57;5.97;;;16.60;59.60;;;;;;5073760;28;20203;-93
2023/03/22 07:19:43;;;;;;;48.83;6.97;;;16.60;59.60;;;;;;5086806;28;20195;-93
2023/03/22 07:22:13;;;;;;;35.87;6.37;;;16.60;59.60;;;;;;5084696;28;20237;-93
2023/03/22 07:24:40;;;;;;;77.97;9.13;;;16.60;59.70;;;;;;5088078;28;20206;-93
2023/03/22 07:27:07;;;;;;;47.30;7.20;;;16.60;59.60;;;;;;5088881;28;20322;-90
2023/03/22 07:29:44;;;;;;;;;;;;;;;;;;;;;
2023/03/22 07:32:12;;;;;;;35.20;6.10;;;16.70;59.70;;;;;;5089917;28;20205;-94
2023/03/22 07:37:21;;;;;;;37.93;6.30;;;16.60;59.60;;;;;;5085863;28;20568;-90
2023/03/22 07:39:48;;;;;;;64.73;8.63;;;16.60;59.60;;;;;;5087934;28;20656;-93
2023/03/22 07:42:15;;;;;;;45.63;6.90;;;16.60;59.60;;;;;;5086116;28;20203;-94
2023/03/22 07:44:54;;;;;;;41.33;7.00;;;16.70;59.80;;;;;;5088059;28;20209;-93
2023/03/22 07:47:22;;;;;;;36.00;5.77;;;16.50;59.60;;;;;;5078871;28;20199;-91
2023/03/22 07:49:49;;;;;;;45.17;6.80;;;16.60;59.70;;;;;;5086485;28;20726;-93
2023/03/22 07:52:16;;;;;;;40.53;7.33;;;16.60;59.70;;;;;;5088407;28;20237;-92
2023/03/22 07:54:44;;;;;;;37.73;7.23;;;16.60;59.70;;;;;;5088966;28;20255;-91
2023/03/22 07:57:11;;;;;;;38.80;7.70;;;16.60;59.80;;;;;;5087665;28;20684;-94
2023/03/22 07:59:38;;;;;;;62.53;9.30;;;16.80;59.90;;;;;;5087146;28;20212;-94
2023/03/22 08:02:13;;;;;;;43.10;7.50;;;16.70;59.80;;;;;;5087513;28;20209;-89
2023/03/22 08:04:40;;;;;;;50.63;7.67;;;16.60;59.80;;;;;;5086506;28;20925;-94
2023/03/22 08:09:46;;;;;;;44.73;7.60;;;16.60;59.80;;;;;;5093358;22;20322;-90
2023/03/22 08:12:14;;;;;;;49.10;7.67;;;16.60;59.80;;;;;;5084497;28;20742;-91
2023/03/22 08:15:02;;;;;;;43.40;6.50;;;16.70;59.80;;;;;;5086839;28;20212;-91
2023/03/22 08:17:29;;;;;;;61.27;7.93;;;16.70;59.80;;;;;;5087533;28;20289;-92
2023/03/22 08:19:56;;;;;;;40.83;6.73;;;16.70;59.80;;;;;;5088227;28;20197;-90
2023/03/22 08:25:28;;;;;;;42.53;6.90;;;16.60;59.80;;;;;;5074977;28;20264;-92
2023/03/22 08:27:55;;;;;;;49.47;7.47;;;16.70;59.90;;;;;;5087480;28;20192;-91
2023/03/22 08:30:23;;;;;;;49.77;7.07;;;16.70;59.90;;;;;;5086670;28;20339;-91
2023/03/22 08:32:50;;;;;;;48.03;7.07;;;16.70;59.90;;;;;;5083901;28;20200;-92
2023/03/22 08:35:17;;;;;;;58.80;8.50;;;16.70;59.90;;;;;;5085707;28;20210;-92
2023/03/22 08:37:44;;;;;;;34.93;6.60;;;16.70;59.90;;;;;;5078038;28;20199;-91
2023/03/22 08:40:12;;;;;;;48.37;7.53;;;16.70;60.00;;;;;;5085696;28;20509;-90
2023/03/22 08:42:43;;;;;;;35.13;6.43;;;16.70;59.90;;;;;;5088002;28;20670;-91
2023/03/22 08:45:10;;;;;;;43.93;7.13;;;16.70;59.90;;;;;;5087914;28;20208;-91
2023/03/22 08:47:37;;;;;;;38.50;6.57;;;16.70;59.90;;;;;;5088152;28;20204;-91
2023/03/22 08:50:05;;;;;;;39.53;6.43;;;16.70;60.00;;;;;;5088088;28;20228;-91
2023/03/22 08:52:32;;;;;;;38.23;6.43;;;16.70;59.90;;;;;;5087920;28;20210;-91
2023/03/22 08:54:59;;;;;;;40.17;6.30;;;16.70;59.90;;;;;;5086461;28;20213;-91
2023/03/22 08:57:28;;;;;;;35.30;6.40;;;16.70;60.00;;;;;;5086696;28;20198;-91
2023/03/22 08:59:57;;;;;;;45.23;6.97;;;16.70;60.00;;;;;;5091084;28;20203;-91
2023/03/22 09:02:26;;;;;;;36.43;6.47;;;16.70;59.90;;;;;;5087704;28;20214;-91
2023/03/22 09:04:53;;;;;;;58.70;8.23;;;16.70;60.00;;;;;;5089970;28;20614;-91
2023/03/22 09:07:21;;;;;;;42.40;7.17;;;16.70;59.90;;;;;;5090796;28;20198;-90
2023/03/22 09:09:48;;;;;;;47.43;6.90;;;16.70;60.00;;;;;;5090681;28;20231;-91
2023/03/22 09:12:15;;;;;;;36.87;6.57;;;16.70;60.00;;;;;;5091310;28;20283;-91
2023/03/22 09:14:42;;;;;;;35.80;6.67;;;16.70;60.00;;;;;;5090212;28;20209;-92
2023/03/22 09:17:10;;;;;;;43.97;6.27;;;16.70;60.00;;;;;;5090510;28;20206;-92
2023/03/22 09:19:47;;;;;;;37.87;6.13;;;16.70;60.00;;;;;;5090596;28;20649;-90
2023/03/22 09:22:14;;;;;;;37.10;6.40;;;16.70;60.10;;;;;;5090242;28;20242;-92
2023/03/22 09:24:41;;;;;;;39.27;6.37;;;16.70;60.00;;;;;;5091102;28;20593;-92
2023/03/22 09:27:09;;;;;;;54.17;8.03;;;16.70;60.10;;;;;;5090779;28;20194;-91
2023/03/22 09:29:36;;;;;;;43.27;7.43;;;16.70;60.10;;;;;;5090354;28;20565;-92
2023/03/22 09:32:03;;;;;;;48.33;7.97;;;16.80;60.20;;;;;;5090800;28;20411;-91
2023/03/22 09:34:31;;;;;;;56.43;7.83;;;16.80;60.20;;;;;;5086849;28;20202;-91
2023/03/22 09:37:01;;;;;;;41.63;7.40;;;16.70;60.10;;;;;;5090413;28;20220;-91
2023/03/22 09:39:28;;;;;;;40.23;6.77;;;16.80;60.30;;;;;;5090947;28;20206;-92
2023/03/22 09:42:00;;;;;;;40.63;6.93;;;16.80;60.30;;;;;;5089021;28;20273;-91
2023/03/22 09:44:34;;;;;;;43.60;7.23;;;16.70;60.20;;;;;;5090349;28;20207;-91
2023/03/22 09:47:14;;;;;;;48.13;7.23;;;16.70;60.20;;;;;;5089760;28;20196;-92
2023/03/22 09:49:46;;;;;;;48.10;7.33;;;16.70;60.20;;;;;;5090622;28;20605;-90
2023/03/22 09:52:15;;;;;;;58.83;8.33;;;16.80;60.30;;;;;;5088729;28;20315;-91
2023/03/22 09:54:44;;;;;;;40.97;6.57;;;16.70;60.20;;;;;;5086804;28;20203;-92
2023/03/22 09:57:23;;;;;;;40.37;6.87;;;16.80;60.40;;;;;;5090547;28;20199;-92
2023/03/22 09:59:57;;;;;;;38.30;6.37;;;16.80;60.40;;;;;;5076502;28;20280;-92
2023/03/22 10:02:40;;;;;;;33.60;6.50;;;16.80;60.40;;;;;;5089108;28;20313;-93
2023/03/22 10:05:19;;;;;;;49.73;7.20;;;16.80;60.40;;;;;;5069456;28;20201;-92
2023/03/22 10:08:05;;;;;;;50.70;7.40;;;16.80;60.40;;;;;;5088109;28;20306;-93
2023/03/22 10:10:32;;;;;;;32.67;6.00;;;16.80;60.40;;;;;;5097337;28;20247;-93
2023/03/22 10:13:06;;;;;;;59.00;7.80;;;16.80;60.30;;;;;;5102466;28;20221;-94
2023/03/22 10:15:36;;;;;;;33.90;6.63;;;16.80;60.40;;;;;;5097169;28;20202;-92
2023/03/22 10:18:07;;;;;;;61.53;8.77;;;16.80;60.40;;;;;;5089901;28;20677;-92
2023/03/22 10:20:43;;;;;;;34.60;6.77;;;16.80;60.50;;;;;;5084528;28;20219;-91
2023/03/22 10:23:16;;;;;;;45.87;6.97;;;16.80;60.40;;;;;;5070589;28;20203;-91
2023/03/22 10:25:44;;;;;;;32.13;6.20;;;16.70;60.30;;;;;;5089254;28;20217;-92
2023/03/22 10:28:18;;;;;;;35.57;5.73;;;16.80;60.40;;;;;;5082847;28;20204;-91
2023/03/22 10:30:52;;;;;;;35.77;6.40;;;16.80;60.50;;;;;;5080763;28;20230;-92
2023/03/22 10:33:28;;;;;;;33.17;5.93;;;16.80;60.50;;;;;;5087591;28;20200;-92
2023/03/22 10:35:57;;;;;;;44.37;7.17;;;16.80;60.50;;;;;;5069562;28;20651;-91
2023/03/22 10:38:26;;;;;;;39.40;6.57;;;16.80;60.50;;;;;;5087970;28;20251;-90
2023/03/22 10:40:55;;;;;;;44.03;6.93;;;16.80;60.50;;;;;;5088213;28;20548;-92
2023/03/22 10:43:27;;;;;;;91.97;10.53;;;16.80;60.50;;;;;;5086116;28;20204;-93
2023/03/22 10:45:56;;;;;;;43.00;6.67;;;16.80;60.50;;;;;;5087957;28;20202;-94
2023/03/22 10:48:28;;;;;;;40.37;6.93;;;16.80;60.50;;;;;;5087057;28;20585;-93
2023/03/22 10:50:58;;;;;;;69.70;9.30;;;16.80;60.50;;;;;;5080512;28;20223;-94
2023/03/22 10:53:33;;;;;;;41.03;6.73;;;16.80;60.50;;;;;;5087738;28;20211;-94
2023/03/22 10:56:00;;;;;;;50.40;7.87;;;16.80;60.60;;;;;;5087103;28;20599;-93
2023/03/22 10:58:31;;;;;;;56.83;8.40;;;16.80;60.50;;;;;;5082579;28;20636;-94
2023/03/22 11:01:03;;;;;;;48.03;7.33;;;16.90;60.70;;;;;;5087677;28;20297;-92
2023/03/22 11:03:36;;;;;;;53.53;7.87;;;16.80;60.50;;;;;;5086578;28;20293;-91
2023/03/22 11:06:09;;;;;;;50.90;7.80;;;16.80;60.60;;;;;;5088036;28;20218;-91
2023/03/22 11:08:42;;;;;;;38.03;6.53;;;16.90;60.70;;;;;;5087659;28;20207;-91
2023/03/22 11:11:18;;;;;;;45.93;7.07;;;16.80;60.70;;;;;;5086237;28;20303;-93
2023/03/22 11:13:51;;;;;;;33.27;6.33;;;16.90;60.80;;;;;;5089022;28;20205;-91
2023/03/22 11:16:19;;;;;;;49.03;7.20;;;16.90;60.70;;;;;;5085280;28;20210;-89
2023/03/22 11:19:04;;;;;;;57.20;7.80;;;16.80;60.50;;;;;;5084736;28;20572;-91
2023/03/22 11:21:33;;;;;;;51.60;7.17;;;16.80;60.60;;;;;;5083746;28;20224;-92
2023/03/22 11:24:07;;;;;;;32.77;6.07;;;16.80;60.50;;;;;;5088155;28;20290;-90
2023/03/22 11:26:36;;;;;;;39.37;6.40;;;16.90;60.70;;;;;;5087272;28;20232;-91
2023/03/22 11:29:21;;;;;;;50.03;6.97;;;16.90;60.70;;;;;;5086016;28;20206;-91
2023/03/22 11:31:56;;;;;;;39.77;6.63;;;16.90;60.70;;;;;;5088987;28;20226;-96
2023/03/22 11:34:26;;;;;;;37.87;6.43;;;16.90;60.70;;;;;;5090278;28;20214;-96
2023/03/22 11:37:18;;;;;;;39.60;6.23;;;16.90;60.70;;;;;;5089739;28;20199;-95
2023/03/22 11:40:41;;;;;;;50.70;7.33;;;17.00;60.90;;;;;;5060533;28;20238;-95
2023/03/22 11:43:16;;;;;;;43.17;6.57;;;17.00;60.90;;;;;;5078894;28;20227;-94
2023/03/22 11:45:45;;;;;;;34.87;6.30;;;16.90;60.70;;;;;;5089669;28;20204;-94
2023/03/22 11:48:21;;;;;;;36.95;6.00;;;16.90;60.70;;;;;;5091482;28;20488;-95
2023/03/22 11:50:49;;;;;;;52.97;7.73;;;16.90;61.30;;;;;;5083052;28;20595;-95
2023/03/22 11:53:25;;;;;;;50.00;6.63;;;16.90;61.20;;;;;;5081621;28;20390;-93
2023/03/22 11:56:10;;;;;;;34.50;6.17;;;16.90;61.10;;;;;;5088953;28;20230;-93
2023/03/22 11:58:53;;;;;;;36.43;5.93;;;16.80;60.80;;;;;;5088667;28;20262;-93
2023/03/22 12:01:36;;;;;;;64.13;7.77;;;17.00;60.90;;;;;;5088265;28;20203;-93
2023/03/22 12:04:08;;;;;;;49.37;7.10;;;17.00;60.90;;;;;;5087903;28;20290;-93
2023/03/22 12:09:58;;;;;;;45.43;6.77;;;16.90;60.70;;;;;;5074070;28;20221;-93
2023/03/22 12:12:29;;;;;;;43.70;6.60;;;17.00;60.80;;;;;;5088884;28;20230;-93
2023/03/22 12:15:01;;;;;;;45.07;7.27;;;17.00;60.80;;;;;;5087935;28;20655;-92
2023/03/22 12:17:34;;;;;;;39.47;6.83;;;17.00;60.80;;;;;;5088490;28;20294;-93
2023/03/22 12:20:12;;;;;;;34.10;6.20;;;17.00;60.80;;;;;;5088138;28;20700;-93
2023/03/22 12:22:44;;;;;;;34.30;5.93;;;17.10;61.00;;;;;;5087239;28;20206;-93
2023/03/22 12:25:16;;;;;;;38.00;6.10;;;17.00;60.90;;;;;;5087747;28;20201;-93
2023/03/22 12:27:47;;;;;;;39.23;6.47;;;17.10;61.00;;;;;;5088599;28;20281;-93
2023/03/22 12:30:18;;;;;;;39.97;7.17;;;17.00;60.90;;;;;;5087238;28;20207;-93
2023/03/22 12:32:49;;;;;;;34.33;6.30;;;17.10;60.90;;;;;;5089306;28;20251;-93
2023/03/22 12:35:21;;;;;;;37.97;6.67;;;17.00;60.90;;;;;;5091950;28;20245;-93
2023/03/22 12:37:52;;;;;;;50.20;7.13;;;17.10;61.00;;;;;;5075348;28;20288;-94
2023/03/22 12:40:24;;;;;;;38.83;6.87;;;17.10;61.00;;;;;;5091368;28;20228;-96
2023/03/22 12:42:59;;;;;;;48.53;7.13;;;17.10;61.00;;;;;;5093709;28;20202;-96
2023/03/22 12:45:28;;;;;;;46.57;7.20;;;17.10;61.00;;;;;;5092849;28;20927;-94
2023/03/22 12:50:58;;;;;;;39.20;6.50;;;17.10;61.00;;;;;;5058626;28;20224;-95
2023/03/22 12:53:33;;;;;;;45.67;6.83;;;17.10;61.00;;;;;;5092279;28;20234;-93
2023/03/22 12:56:03;;;;;;;41.93;6.70;;;17.10;61.00;;;;;;5089462;28;20203;-94
2023/03/22 12:58:30;;;;;;;50.40;7.23;;;17.20;61.10;;;;;;5089693;28;20217;-93
2023/03/22 13:01:01;;;;;;;43.90;7.00;;;17.10;61.00;;;;;;5092465;28;20754;-94
2023/03/22 13:03:36;;;;;;;44.47;7.03;;;17.10;61.10;;;;;;5092268;28;20226;-94
2023/03/22 13:06:06;;;;;;;37.50;6.73;;;17.20;61.20;;;;;;5092005;28;20209;-93
2023/03/22 13:09:14;;;;;;;48.10;7.83;;;17.20;61.20;;;;;;5090847;28;20252;-94
2023/03/22 13:11:44;;;;;;;43.67;7.40;;;17.20;61.40;;;;;;5074969;28;20314;-95
2023/03/22 13:14:49;;;;;;;43.77;6.93;;;17.20;61.20;;;;;;5091306;28;20224;-94
2023/03/22 13:17:35;;;;;;;40.93;6.33;;;17.20;61.40;;;;;;5092394;28;20223;-93
2023/03/22 13:20:26;;;;;;;58.70;8.07;;;17.20;61.40;;;;;;5091876;28;20296;-96
2023/03/22 13:23:27;;;;;;;23.80;5.30;;;17.20;61.40;;;;;;5104295;28;20271;-94
2023/03/22 13:26:38;;;;;;;30.10;5.47;;;17.20;61.40;;;;;;5111325;28;20292;-94
2023/03/22 13:29:16;;;;;;;39.93;6.43;;;17.20;61.50;;;;;;5081319;28;20204;-93
2023/03/22 13:32:28;;;;;;;34.63;6.23;;;17.20;61.40;;;;;;5071629;28;20258;-93
2023/03/22 13:34:59;;;;;;;33.30;5.80;;;17.30;61.70;;;;;;5085385;28;20205;-93
2023/03/22 13:37:33;;;;;;;43.97;7.13;;;17.20;61.40;;;;;;5091280;28;20289;-93
2023/03/22 13:40:04;;;;;;;25.17;5.77;;;17.20;61.50;;;;;;5097519;28;20230;-92
2023/03/22 13:42:37;;;;;;;46.53;6.93;;;17.20;61.40;;;;;;5100701;28;20196;-92
2023/03/22 13:45:09;;;;;;;32.17;5.67;;;17.30;61.60;;;;;;5093565;28;20748;-93
2023/03/22 13:47:37;;;;;;;42.17;6.87;;;17.30;61.70;;;;;;5091517;28;20284;-92
2023/03/22 13:50:16;;;;;;;33.43;5.67;;;17.30;61.60;;;;;;5082694;28;20212;-92
2023/03/22 13:52:53;;;;;;;41.63;6.43;;;17.30;61.70;;;;;;5081205;28;20654;-92
2023/03/22 13:55:39;;;;;;;33.97;6.47;;;17.30;61.60;;;;;;5091230;28;20220;-93
2023/03/22 13:58:10;;;;;;;33.20;5.90;;;17.40;61.80;;;;;;5091014;28;20205;-92